createdAt,value
2023-10-22T00:01:31.136Z,93.20
2023-10-22T00:03:58.247Z,93.10
2023-10-22T00:06:25.279Z,93.10
2023-10-22T00:08:52.339Z,93.20
2023-10-22T00:11:19.389Z,93.20
2023-10-22T00:13:46.227Z,93.20
2023-10-22T00:16:13.263Z,93.20
2023-10-22T00:18:40.106Z,93.30
2023-10-22T00:21:10.218Z,93.50
2023-10-22T00:27:25.173Z,93.60
2023-10-22T00:29:52.228Z,93.50
2023-10-22T00:32:19.129Z,93.60
2023-10-22T00:34:45.975Z,93.60
2023-10-22T00:37:13.190Z,93.70
2023-10-22T00:39:40.039Z,93.50
2023-10-22T00:42:06.997Z,93.60
2023-10-22T00:44:34.014Z,93.70
2023-10-22T00:47:01.155Z,93.60
2023-10-22T00:49:28.163Z,93.70
2023-10-22T00:51:55.853Z,93.80
2023-10-22T00:54:23.301Z,94.00
2023-10-22T00:56:52.666Z,94.00
2023-10-22T00:59:20.000Z,94.20
2023-10-22T01:01:47.251Z,94.30
2023-10-22T01:04:14.283Z,94.40
2023-10-22T01:06:41.359Z,94.40
2023-10-22T01:09:11.264Z,94.40
2023-10-22T01:11:57.526Z,94.40
2023-10-22T01:14:24.287Z,94.60
2023-10-22T01:16:51.158Z,94.70
2023-10-22T01:19:20.821Z,94.80
2023-10-22T01:21:47.757Z,94.90
2023-10-22T01:24:14.909Z,94.90
2023-10-22T01:26:46.347Z,95.10
2023-10-22T01:29:13.457Z,95.10
2023-10-22T01:31:40.585Z,95.50
2023-10-22T01:34:07.656Z,95.70
2023-10-22T01:36:34.558Z,96.00
2023-10-22T01:39:01.717Z,96.20
2023-10-22T01:41:28.636Z,96.30
2023-10-22T01:43:57.315Z,96.60
2023-10-22T01:46:24.304Z,97.00
2023-10-22T01:48:51.232Z,97.20
2023-10-22T01:51:18.331Z,97.50
2023-10-22T01:53:45.365Z,97.70
2023-10-22T01:56:12.168Z,98.00
2023-10-22T01:58:39.584Z,98.40
2023-10-22T02:01:07.347Z,98.60
2023-10-22T02:03:35.674Z,98.90
2023-10-22T02:06:10.927Z,99.00
2023-10-22T02:08:38.226Z,99.10
2023-10-22T02:11:05.123Z,99.10
2023-10-22T02:13:32.297Z,99.30
2023-10-22T02:15:59.340Z,99.40
2023-10-22T02:18:26.503Z,99.60
2023-10-22T02:20:59.107Z,99.30
2023-10-22T02:23:26.476Z,99.20
2023-10-22T02:25:53.414Z,99.20
2023-10-22T02:28:20.727Z,99.50
2023-10-22T02:30:51.988Z,99.30
2023-10-22T02:33:19.111Z,98.90
2023-10-22T02:35:46.998Z,98.70
2023-10-22T02:38:16.488Z,98.60
2023-10-22T02:40:44.759Z,98.40
2023-10-22T02:43:13.078Z,98.20
2023-10-22T02:45:52.717Z,98.40
2023-10-22T02:48:19.998Z,98.20
2023-10-22T02:50:47.515Z,98.10
2023-10-22T02:53:14.948Z,98.20
2023-10-22T02:55:41.811Z,98.30
2023-10-22T02:58:08.584Z,98.40
2023-10-22T03:00:37.528Z,98.40
2023-10-22T03:03:05.558Z,98.40
2023-10-22T03:05:37.425Z,98.50
2023-10-22T03:08:04.952Z,98.60
2023-10-22T03:10:32.027Z,98.80
2023-10-22T03:13:01.118Z,98.90
2023-10-22T03:15:29.112Z,99.00
2023-10-22T03:17:58.435Z,99.00
2023-10-22T03:20:25.979Z,99.30
2023-10-22T03:22:53.230Z,99.60
2023-10-22T03:25:23.359Z,99.50
2023-10-22T03:27:50.899Z,99.80
2023-10-22T03:30:18.748Z,99.80
2023-10-22T03:32:46.379Z,99.80
2023-10-22T03:35:14.394Z,99.90
2023-10-22T03:37:41.918Z,99.70
2023-10-22T03:40:11.130Z,99.60
2023-10-22T03:42:38.355Z,99.60
2023-10-22T03:45:07.275Z,99.80
2023-10-22T03:47:34.298Z,99.70
2023-10-22T03:50:01.183Z,99.60
2023-10-22T03:52:30.277Z,99.50
2023-10-22T03:54:58.157Z,99.40
2023-10-22T03:57:25.372Z,99.10
2023-10-22T03:59:52.455Z,99.10
2023-10-22T04:02:19.517Z,98.90
2023-10-22T04:04:46.553Z,98.90
2023-10-22T04:07:13.553Z,98.80
2023-10-22T04:09:40.400Z,98.80
2023-10-22T04:12:07.740Z,98.80
2023-10-22T04:14:35.846Z,98.40
2023-10-22T04:17:03.013Z,98.40
2023-10-22T04:19:30.080Z,98.40
2023-10-22T04:21:56.887Z,98.30
2023-10-22T04:24:23.640Z,98.60
2023-10-22T04:26:50.621Z,98.70
2023-10-22T04:29:17.551Z,99.00
2023-10-22T04:31:44.255Z,99.00
2023-10-22T04:34:11.290Z,99.10
2023-10-22T04:36:38.044Z,99.00
2023-10-22T04:39:04.837Z,98.80
2023-10-22T04:41:31.720Z,98.90
2023-10-22T04:43:58.656Z,98.80
2023-10-22T04:46:26.108Z,98.70
2023-10-22T04:48:53.116Z,98.70
2023-10-22T04:51:20.085Z,98.30
2023-10-22T04:53:46.986Z,98.10
2023-10-22T04:56:13.775Z,97.90
2023-10-22T04:58:40.565Z,97.80
2023-10-22T05:01:07.413Z,97.70
2023-10-22T05:03:34.606Z,97.60
2023-10-22T05:06:09.733Z,97.30
2023-10-22T05:08:38.058Z,97.30
2023-10-22T05:11:07.049Z,97.50
2023-10-22T05:13:34.106Z,97.50
2023-10-22T05:16:01.088Z,97.30
2023-10-22T05:18:28.213Z,97.30
2023-10-22T05:21:03.099Z,97.40
2023-10-22T05:23:30.250Z,97.40
2023-10-22T05:26:23.560Z,97.40
2023-10-22T05:28:50.363Z,97.50
2023-10-22T05:31:19.651Z,97.60
2023-10-22T05:33:47.347Z,97.60
2023-10-22T05:36:22.835Z,97.90
2023-10-22T05:38:50.247Z,98.00
2023-10-22T05:41:23.913Z,97.90
2023-10-22T05:43:57.830Z,98.10
2023-10-22T05:46:24.962Z,98.40
2023-10-22T05:48:51.868Z,98.30
2023-10-22T05:51:19.168Z,98.30
2023-10-22T05:53:46.772Z,98.30
2023-10-22T05:56:13.606Z,98.30
2023-10-22T05:58:40.617Z,98.20
2023-10-22T06:01:09.926Z,98.40
2023-10-22T06:03:37.086Z,98.40
2023-10-22T06:06:04.612Z,98.40
2023-10-22T06:08:31.564Z,98.50
2023-10-22T06:10:58.356Z,98.30
2023-10-22T06:13:25.500Z,98.30
2023-10-22T06:15:57.446Z,98.10
2023-10-22T06:18:24.475Z,98.00
2023-10-22T06:20:51.364Z,98.00
2023-10-22T06:23:18.156Z,98.20
2023-10-22T06:25:45.611Z,98.20
2023-10-22T06:28:12.843Z,98.20
2023-10-22T06:30:39.714Z,98.40
2023-10-22T06:33:06.529Z,98.30
2023-10-22T06:35:33.849Z,98.30
2023-10-22T06:38:00.606Z,98.20
2023-10-22T06:40:27.397Z,98.20
2023-10-22T06:42:54.281Z,98.00
2023-10-22T06:45:21.221Z,97.70
2023-10-22T06:47:48.494Z,97.60
2023-10-22T06:50:16.461Z,97.70
2023-10-22T06:52:43.930Z,97.80
2023-10-22T06:55:11.657Z,97.10
2023-10-22T06:57:39.770Z,97.00
2023-10-22T07:00:11.038Z,97.20
2023-10-22T07:02:39.133Z,96.70
2023-10-22T07:05:08.680Z,96.50
2023-10-22T07:07:35.578Z,96.50
2023-10-22T07:10:02.287Z,96.50
2023-10-22T07:12:29.184Z,96.50
2023-10-22T07:14:56.630Z,95.90
2023-10-22T07:17:23.733Z,95.70
2023-10-22T07:19:50.661Z,95.80
2023-10-22T07:22:17.473Z,96.00
2023-10-22T07:24:44.832Z,96.00
2023-10-22T07:27:11.733Z,96.20
2023-10-22T07:29:38.621Z,96.10
2023-10-22T07:32:05.958Z,95.90
2023-10-22T07:34:32.825Z,95.80
2023-10-22T07:36:59.598Z,96.00
2023-10-22T07:39:26.436Z,95.60
2023-10-22T07:41:53.419Z,95.80
2023-10-22T07:44:20.359Z,95.90
2023-10-22T07:46:47.127Z,95.70
2023-10-22T07:49:13.977Z,95.60
2023-10-22T07:51:40.785Z,95.50
2023-10-22T07:54:08.974Z,95.40
2023-10-22T07:56:35.915Z,95.40
2023-10-22T07:59:03.345Z,95.30
2023-10-22T08:01:30.274Z,95.20
2023-10-22T08:03:57.258Z,95.20
2023-10-22T08:06:24.140Z,95.30
2023-10-22T08:08:55.775Z,95.20
2023-10-22T08:11:23.158Z,95.40
2023-10-22T08:13:50.034Z,95.60
2023-10-22T08:16:16.925Z,95.60
2023-10-22T08:18:45.076Z,95.40
2023-10-22T08:21:12.361Z,95.30
2023-10-22T08:23:40.114Z,95.50
2023-10-22T08:26:07.606Z,95.30
2023-10-22T08:28:36.513Z,95.40
2023-10-22T08:31:03.636Z,95.30
2023-10-22T08:33:33.019Z,95.20
2023-10-22T08:36:07.515Z,95.10
2023-10-22T08:38:34.411Z,95.30
2023-10-22T08:41:07.498Z,95.40
2023-10-22T08:43:38.642Z,95.20
2023-10-22T08:46:06.637Z,95.20
2023-10-22T08:48:34.314Z,94.80
2023-10-22T08:51:01.944Z,94.80
2023-10-22T08:53:28.933Z,94.80
2023-10-22T08:55:57.800Z,94.90
2023-10-22T08:58:24.754Z,94.40
2023-10-22T09:00:51.657Z,94.30
2023-10-22T09:03:19.998Z,94.40
2023-10-22T09:05:47.897Z,94.10
2023-10-22T09:08:16.442Z,93.80
2023-10-22T09:10:44.214Z,93.80
2023-10-22T09:13:16.746Z,93.50
2023-10-22T09:15:49.123Z,93.50
2023-10-22T09:18:17.131Z,93.60
2023-10-22T09:20:46.293Z,93.50
2023-10-22T09:23:23.618Z,93.60
2023-10-22T09:25:52.414Z,94.40
2023-10-22T09:28:23.375Z,94.70
2023-10-22T09:30:57.178Z,95.00
2023-10-22T09:33:45.274Z,95.50
2023-10-22T09:36:13.705Z,95.70
2023-10-22T09:38:44.832Z,95.70
2023-10-22T09:41:13.707Z,95.50
2023-10-22T09:43:42.707Z,95.50
2023-10-22T09:46:09.760Z,95.50
2023-10-22T09:48:37.124Z,95.30
2023-10-22T09:51:06.460Z,95.10
2023-10-22T09:53:40.375Z,95.20
2023-10-22T09:56:12.254Z,95.00
2023-10-22T09:58:46.401Z,95.10
2023-10-22T10:01:15.397Z,94.80
2023-10-22T10:03:43.550Z,94.70
2023-10-22T10:06:11.045Z,94.50
2023-10-22T10:08:39.804Z,94.50
2023-10-22T10:11:09.711Z,94.10
2023-10-22T10:13:36.710Z,94.00
2023-10-22T10:16:05.390Z,94.00
2023-10-22T10:19:00.324Z,93.80
2023-10-22T10:21:42.357Z,93.30
2023-10-22T10:24:30.209Z,93.30
2023-10-22T10:26:57.662Z,93.30
2023-10-22T10:29:26.644Z,93.10
2023-10-22T10:31:55.287Z,93.00
2023-10-22T10:34:37.740Z,92.80
2023-10-22T10:37:11.237Z,92.50
2023-10-22T10:39:43.404Z,92.80
2023-10-22T10:42:15.515Z,92.80
2023-10-22T10:45:00.717Z,92.80
2023-10-22T10:47:29.159Z,92.60
2023-10-22T10:50:08.158Z,92.50
2023-10-22T10:52:44.049Z,92.30
2023-10-22T10:55:17.125Z,92.50
2023-10-22T10:57:49.508Z,92.20
2023-10-22T11:00:22.829Z,92.20
2023-10-22T11:02:51.637Z,92.30
2023-10-22T11:05:37.631Z,92.20
2023-10-22T11:08:05.704Z,92.10
2023-10-22T11:10:32.601Z,92.40
2023-10-22T11:13:07.626Z,92.40
2023-10-22T11:15:36.528Z,92.10
2023-10-22T11:18:05.785Z,92.40
2023-10-22T11:20:33.654Z,92.30
2023-10-22T11:23:01.220Z,92.10
2023-10-22T11:25:29.496Z,92.30
2023-10-22T11:27:57.103Z,92.20
2023-10-22T11:30:53.116Z,91.90
2023-10-22T11:33:31.285Z,91.60
2023-10-22T11:35:58.125Z,91.40
2023-10-22T11:38:25.114Z,91.70
2023-10-22T11:40:56.604Z,91.50
2023-10-22T11:43:24.630Z,91.10
2023-10-22T11:45:53.670Z,91.20
2023-10-22T11:48:22.233Z,90.70
2023-10-22T11:50:50.717Z,90.50
2023-10-22T11:53:18.315Z,90.50
2023-10-22T11:55:46.752Z,90.90
2023-10-22T11:58:18.780Z,90.70
2023-10-22T12:00:49.313Z,90.40
2023-10-22T12:03:16.993Z,90.40
2023-10-22T12:05:44.094Z,90.10
2023-10-22T12:08:10.982Z,89.90
2023-10-22T12:10:38.012Z,90.10
2023-10-22T12:13:07.906Z,90.20
2023-10-22T12:15:36.333Z,90.20
2023-10-22T12:18:04.268Z,90.20
2023-10-22T12:20:31.675Z,90.40
2023-10-22T12:22:58.782Z,90.60
2023-10-22T12:25:25.593Z,90.50
2023-10-22T12:27:52.714Z,90.30
2023-10-22T12:30:19.960Z,90.40
2023-10-22T12:32:47.739Z,90.30
2023-10-22T12:35:15.410Z,90.70
2023-10-22T12:37:42.477Z,90.60
2023-10-22T12:40:10.422Z,90.10
2023-10-22T12:42:42.407Z,90.00
2023-10-22T12:45:13.056Z,90.20
2023-10-22T12:47:41.161Z,90.30
2023-10-22T12:50:08.356Z,90.30
2023-10-22T12:52:36.615Z,90.20
2023-10-22T12:55:03.871Z,90.10
2023-10-22T12:57:31.060Z,90.40
2023-10-22T12:59:57.986Z,90.40
2023-10-22T13:02:24.884Z,90.60
2023-10-22T13:04:51.805Z,90.40
2023-10-22T13:07:19.835Z,90.50
2023-10-22T13:09:47.201Z,90.70
2023-10-22T13:12:14.012Z,90.70
2023-10-22T13:14:40.902Z,90.70
2023-10-22T13:17:07.915Z,91.00
2023-10-22T13:19:34.909Z,91.10
2023-10-22T13:22:01.826Z,91.10
2023-10-22T13:24:28.696Z,91.30
2023-10-22T13:26:55.589Z,91.30
2023-10-22T13:29:22.541Z,91.30
2023-10-22T13:31:49.852Z,91.70
2023-10-22T13:34:16.582Z,91.40
2023-10-22T13:36:43.344Z,91.50
2023-10-22T13:39:10.670Z,91.60
2023-10-22T13:41:37.814Z,91.60
2023-10-22T13:44:05.938Z,91.60
2023-10-22T13:46:33.020Z,91.70
2023-10-22T13:49:00.210Z,91.70
2023-10-22T13:51:27.124Z,91.70
2023-10-22T13:53:53.945Z,92.00
2023-10-22T13:56:20.710Z,92.20
2023-10-22T13:58:47.613Z,92.30
2023-10-22T14:01:14.828Z,92.10
2023-10-22T14:03:43.654Z,92.20
2023-10-22T14:06:10.746Z,92.00
2023-10-22T14:08:37.552Z,91.90
2023-10-22T14:11:04.679Z,91.90
2023-10-22T14:13:31.594Z,91.80
2023-10-22T14:16:08.148Z,91.70
2023-10-22T14:18:35.067Z,91.90
2023-10-22T14:21:11.874Z,91.90
2023-10-22T14:23:38.998Z,92.00
2023-10-22T14:26:05.887Z,91.90
2023-10-22T14:28:32.986Z,91.80
2023-10-22T14:31:00.153Z,92.10
2023-10-22T14:33:27.075Z,92.20
2023-10-22T14:36:06.837Z,92.10
2023-10-22T14:38:34.031Z,92.10
2023-10-22T14:41:02.559Z,92.30
2023-10-22T14:43:29.798Z,92.30
2023-10-22T14:46:03.287Z,92.30
2023-10-22T14:48:31.376Z,92.40
2023-10-22T14:51:00.385Z,92.70
2023-10-22T14:53:27.722Z,92.40
2023-10-22T14:55:58.874Z,92.00
2023-10-22T14:58:26.296Z,92.00
2023-10-22T15:00:53.379Z,92.30
2023-10-22T15:03:21.402Z,92.10
2023-10-22T15:05:49.899Z,92.20
2023-10-22T15:08:17.172Z,92.30
2023-10-22T15:10:45.958Z,92.20
2023-10-22T15:13:13.310Z,92.30
2023-10-22T15:15:40.994Z,92.40
2023-10-22T15:18:08.873Z,92.60
2023-10-22T15:20:39.950Z,92.60
2023-10-22T15:23:07.793Z,92.40
2023-10-22T15:25:35.531Z,92.50
2023-10-22T15:28:03.564Z,92.70
2023-10-22T15:30:33.520Z,92.70
2023-10-22T15:33:00.413Z,92.80
2023-10-22T15:35:31.090Z,92.90
2023-10-22T15:38:03.162Z,93.10
2023-10-22T15:40:33.638Z,93.10
2023-10-22T15:43:01.053Z,93.20
2023-10-22T15:45:31.031Z,93.30
2023-10-22T15:47:59.527Z,93.30
2023-10-22T15:50:28.373Z,93.40
2023-10-22T15:52:56.067Z,93.70
2023-10-22T15:55:23.177Z,93.70
2023-10-22T15:57:52.988Z,93.70
2023-10-22T16:00:22.671Z,93.80
2023-10-22T16:02:49.720Z,93.80
2023-10-22T16:05:16.525Z,93.80
2023-10-22T16:07:43.312Z,93.90
2023-10-22T16:10:11.863Z,94.10
2023-10-22T16:12:39.725Z,94.30
2023-10-22T16:15:07.974Z,94.10
2023-10-22T16:17:41.708Z,94.30
2023-10-22T16:20:09.671Z,94.40
2023-10-22T16:22:36.833Z,94.70
2023-10-22T16:25:03.989Z,94.70
2023-10-22T16:27:31.432Z,94.90
2023-10-22T16:29:58.405Z,94.90
2023-10-22T16:32:25.438Z,95.00
2023-10-22T16:34:52.417Z,95.10
2023-10-22T16:37:19.152Z,95.50
2023-10-22T16:39:45.938Z,95.60
2023-10-22T16:42:12.871Z,95.70
2023-10-22T16:44:39.846Z,95.60
2023-10-22T16:47:06.800Z,95.50
2023-10-22T16:49:33.577Z,95.80
2023-10-22T16:52:00.476Z,95.80
2023-10-22T16:54:27.471Z,96.00
2023-10-22T16:56:54.489Z,95.80
2023-10-22T16:59:21.342Z,95.60
2023-10-22T17:01:48.126Z,96.10
2023-10-22T17:04:14.941Z,96.30
2023-10-22T17:06:42.096Z,96.60
2023-10-22T17:09:09.006Z,96.70
2023-10-22T17:11:35.945Z,96.60
2023-10-22T17:14:02.770Z,96.80
2023-10-22T17:16:30.002Z,97.10
2023-10-22T17:18:57.494Z,97.20
2023-10-22T17:21:24.581Z,96.90
2023-10-22T17:23:51.447Z,97.00
2023-10-22T17:26:18.332Z,96.80
2023-10-22T17:28:46.440Z,96.80
2023-10-22T17:31:14.912Z,96.70
2023-10-22T17:34:00.924Z,96.50
2023-10-22T17:36:29.101Z,96.20
2023-10-22T17:38:55.907Z,96.10
2023-10-22T17:41:22.767Z,96.30
2023-10-22T17:43:49.529Z,96.40
2023-10-22T17:46:16.672Z,96.30
2023-10-22T17:48:43.846Z,96.40
2023-10-22T17:51:12.439Z,96.40
2023-10-22T17:53:39.756Z,96.20
2023-10-22T17:56:11.529Z,96.60
2023-10-22T17:58:39.520Z,96.60
2023-10-22T18:01:06.826Z,96.70
2023-10-22T18:03:35.649Z,97.00
2023-10-22T18:06:03.360Z,97.10
2023-10-22T18:08:30.624Z,96.80
2023-10-22T18:10:59.089Z,97.00
2023-10-22T18:13:27.381Z,97.20
2023-10-22T18:15:55.872Z,97.20
2023-10-22T18:18:23.386Z,96.90
2023-10-22T18:20:50.333Z,97.20
2023-10-22T18:23:17.471Z,97.30
2023-10-22T18:25:46.570Z,97.30
2023-10-22T18:28:13.446Z,97.20
2023-10-22T18:30:43.431Z,97.30
2023-10-22T18:33:10.412Z,97.50
2023-10-22T18:35:37.396Z,97.80
2023-10-22T18:38:04.274Z,98.00
2023-10-22T18:40:31.275Z,98.20
2023-10-22T18:43:00.435Z,98.40
2023-10-22T18:45:27.599Z,99.00
2023-10-22T18:47:55.712Z,99.10
2023-10-22T18:50:22.666Z,99.30
2023-10-22T18:52:49.740Z,99.60
2023-10-22T18:55:16.649Z,99.80
2023-10-22T18:57:43.755Z,99.80
2023-10-22T19:00:11.787Z,99.90
2023-10-22T19:02:40.623Z,99.90
2023-10-22T19:05:08.373Z,99.90
2023-10-22T19:07:35.330Z,99.60
2023-10-22T19:10:02.295Z,99.90
2023-10-22T19:12:29.046Z,99.90
2023-10-22T19:14:56.066Z,99.90
2023-10-22T19:17:22.859Z,99.90
2023-10-22T19:19:49.892Z,99.90
2023-10-22T19:22:17.825Z,99.90
2023-10-22T19:24:44.709Z,99.90
2023-10-22T19:27:11.533Z,99.90
2023-10-22T19:29:41.384Z,99.90
2023-10-22T19:32:08.484Z,99.90
2023-10-22T19:34:37.854Z,99.90
2023-10-22T19:37:05.079Z,99.90
2023-10-22T19:39:32.289Z,99.90
2023-10-22T19:41:59.225Z,99.90
2023-10-22T19:44:26.196Z,99.90
2023-10-22T19:46:53.060Z,99.90
2023-10-22T19:49:19.763Z,99.90
2023-10-22T19:51:48.511Z,99.90
2023-10-22T19:54:15.415Z,99.90
2023-10-22T19:56:42.249Z,99.90
2023-10-22T19:59:09.199Z,99.90
2023-10-22T20:01:36.126Z,99.90
2023-10-22T20:04:03.185Z,99.90
2023-10-22T20:06:30.146Z,99.90
2023-10-22T20:08:57.151Z,99.90
2023-10-22T20:11:24.666Z,99.90
2023-10-22T20:13:52.171Z,99.90
2023-10-22T20:16:21.252Z,99.90
2023-10-22T20:18:49.609Z,99.90
2023-10-22T20:21:17.659Z,99.90
2023-10-22T20:23:48.232Z,99.90
2023-10-22T20:26:15.859Z,99.90
2023-10-22T20:28:44.199Z,99.90
2023-10-22T20:31:12.081Z,99.90
2023-10-22T20:33:40.666Z,99.90
2023-10-22T20:36:07.850Z,99.90
2023-10-22T20:38:35.111Z,99.90
2023-10-22T20:41:03.928Z,99.90
2023-10-22T20:43:30.887Z,99.90
2023-10-22T20:46:02.799Z,99.90
2023-10-22T20:48:31.288Z,99.90
2023-10-22T20:51:07.433Z,99.90
2023-10-22T20:53:36.835Z,99.90
2023-10-22T20:56:04.906Z,99.90
2023-10-22T20:58:35.306Z,99.90
2023-10-22T21:01:02.875Z,99.90
2023-10-22T21:03:29.845Z,99.90
2023-10-22T21:05:56.868Z,99.90
2023-10-22T21:08:23.742Z,99.90
2023-10-22T21:10:50.876Z,99.90
2023-10-22T21:13:17.896Z,99.90
2023-10-22T21:15:44.878Z,99.90
2023-10-22T21:18:11.751Z,99.90
2023-10-22T21:20:38.706Z,99.90
2023-10-22T21:23:05.497Z,99.90
2023-10-22T21:25:32.347Z,99.90
2023-10-22T21:27:59.180Z,99.90
2023-10-22T21:30:26.236Z,99.90
2023-10-22T21:32:53.129Z,99.90
2023-10-22T21:35:20.058Z,99.90
2023-10-22T21:37:46.843Z,99.90
2023-10-22T21:40:13.737Z,99.90
2023-10-22T21:42:40.686Z,99.90
2023-10-22T21:45:07.794Z,99.90
2023-10-22T21:47:34.625Z,99.90
2023-10-22T21:50:02.149Z,99.90
2023-10-22T21:52:29.003Z,99.90
2023-10-22T21:54:55.938Z,99.90
2023-10-22T21:57:22.850Z,99.90
2023-10-22T21:59:49.675Z,99.90
2023-10-22T22:02:16.666Z,99.90
2023-10-22T22:04:43.549Z,99.90
2023-10-22T22:07:10.564Z,99.90
2023-10-22T22:09:38.736Z,99.90
2023-10-22T22:12:07.524Z,99.90
2023-10-22T22:14:34.481Z,99.90
2023-10-22T22:17:01.364Z,99.90
2023-10-22T22:19:28.147Z,99.90
2023-10-22T22:21:54.936Z,99.90
2023-10-22T22:24:21.876Z,99.90
2023-10-22T22:26:48.735Z,99.90
2023-10-22T22:29:15.568Z,99.90
2023-10-22T22:31:42.478Z,99.90
2023-10-22T22:34:28.446Z,99.90
2023-10-22T22:36:55.411Z,99.90
2023-10-22T22:39:22.221Z,99.90
2023-10-22T22:41:49.813Z,99.90
2023-10-22T22:44:16.618Z,99.90
2023-10-22T22:46:43.619Z,99.90
2023-10-22T22:49:10.886Z,99.90
2023-10-22T22:51:38.223Z,99.90
2023-10-22T22:54:05.039Z,99.90
2023-10-22T22:56:33.160Z,99.90
2023-10-22T22:59:00.086Z,99.90
2023-10-22T23:01:27.050Z,99.90
2023-10-22T23:03:54.005Z,99.90
2023-10-22T23:06:21.042Z,99.90
2023-10-22T23:08:47.957Z,99.90
2023-10-22T23:11:17.056Z,99.90
2023-10-22T23:13:43.917Z,99.90
2023-10-22T23:16:10.786Z,99.90
2023-10-22T23:18:37.762Z,99.90
2023-10-22T23:21:04.649Z,99.90
2023-10-22T23:23:31.454Z,99.90
2023-10-22T23:25:58.296Z,99.90
2023-10-22T23:28:25.149Z,99.90
2023-10-22T23:30:52.128Z,99.90
2023-10-22T23:33:22.119Z,99.90
2023-10-22T23:35:49.445Z,99.90
2023-10-22T23:38:16.248Z,99.90
2023-10-22T23:41:06.554Z,99.90
2023-10-22T23:43:52.822Z,99.90
2023-10-22T23:46:20.649Z,99.90
2023-10-22T23:48:50.317Z,99.90
2023-10-22T23:51:19.795Z,99.90
2023-10-22T23:53:46.624Z,99.90
2023-10-22T23:56:13.432Z,99.90
2023-10-22T23:58:40.158Z,99.90
